createdAt,value
2023-05-16T00:01:02.793Z,15.51
2023-05-16T00:03:50.655Z,15.50
2023-05-16T00:06:38.781Z,15.47
2023-05-16T00:09:26.438Z,15.32
2023-05-16T00:12:14.160Z,15.32
2023-05-16T00:15:02.194Z,15.24
2023-05-16T00:17:50.116Z,15.24
2023-05-16T00:20:37.890Z,14.88
2023-05-16T00:23:27.788Z,15.14
2023-05-16T00:26:17.921Z,15.03
2023-05-16T00:29:07.834Z,15.09
2023-05-16T00:31:56.206Z,15.02
2023-05-16T00:34:44.058Z,15.10
2023-05-16T00:37:31.738Z,15.01
2023-05-16T00:40:19.460Z,15.03
2023-05-16T00:43:07.153Z,14.85
2023-05-16T00:45:54.856Z,14.94
2023-05-16T00:48:44.939Z,14.96
2023-05-16T00:51:32.669Z,14.88
2023-05-16T00:54:26.182Z,14.76
2023-05-16T00:57:13.980Z,14.86
2023-05-16T01:00:01.885Z,14.87
2023-05-16T01:02:53.741Z,14.82
2023-05-16T01:05:41.614Z,14.85
2023-05-16T01:08:34.187Z,14.68
2023-05-16T01:11:38.713Z,14.69
2023-05-16T01:14:26.393Z,14.74
2023-05-16T01:17:46.005Z,14.83
2023-05-16T01:20:42.559Z,14.56
2023-05-16T01:24:08.329Z,14.69
2023-05-16T01:26:57.434Z,14.63
2023-05-16T01:29:45.164Z,14.75
2023-05-16T01:32:32.823Z,14.53
2023-05-16T01:35:21.198Z,14.44
2023-05-16T01:38:13.864Z,14.38
2023-05-16T01:41:25.106Z,14.29
2023-05-16T01:44:52.356Z,14.10
2023-05-16T01:47:50.734Z,14.23
2023-05-16T01:50:46.845Z,14.12
2023-05-16T01:53:39.264Z,14.10
2023-05-16T01:56:29.971Z,14.34
2023-05-16T01:59:18.263Z,14.33
2023-05-16T02:02:05.978Z,14.11
2023-05-16T02:04:53.658Z,14.27
2023-05-16T02:07:41.519Z,14.33
2023-05-16T02:10:31.725Z,14.25
2023-05-16T02:13:20.583Z,14.20
2023-05-16T02:16:11.688Z,14.18
2023-05-16T02:18:59.565Z,14.19
2023-05-16T02:21:47.294Z,14.19
2023-05-16T02:24:35.068Z,14.16
2023-05-16T02:27:23.362Z,14.14
2023-05-16T02:30:12.455Z,14.10
2023-05-16T02:33:00.425Z,13.98
2023-05-16T02:35:48.131Z,14.03
2023-05-16T02:38:36.071Z,14.00
2023-05-16T02:41:24.408Z,13.75
2023-05-16T02:44:14.578Z,13.71
2023-05-16T02:47:02.394Z,13.85
2023-05-16T02:49:50.038Z,13.69
2023-05-16T02:52:37.732Z,13.76
2023-05-16T02:55:25.953Z,13.91
2023-05-16T02:58:13.684Z,13.91
2023-05-16T03:01:01.314Z,13.83
2023-05-16T03:03:49.157Z,13.95
2023-05-16T03:06:55.170Z,13.84
2023-05-16T03:09:42.803Z,13.78
2023-05-16T03:12:30.672Z,13.74
2023-05-16T03:15:18.398Z,13.76
2023-05-16T03:18:06.188Z,13.70
2023-05-16T03:20:54.199Z,13.90
2023-05-16T03:23:44.524Z,13.87
2023-05-16T03:26:32.325Z,13.81
2023-05-16T03:29:20.041Z,13.81
2023-05-16T03:32:08.027Z,13.74
2023-05-16T03:34:55.732Z,13.72
2023-05-16T03:37:44.154Z,13.62
2023-05-16T03:40:31.838Z,13.47
2023-05-16T03:43:20.158Z,13.58
2023-05-16T03:46:08.336Z,13.83
2023-05-16T03:48:56.114Z,13.95
2023-05-16T03:51:43.808Z,13.94
2023-05-16T03:54:34.418Z,13.97
2023-05-16T03:57:23.381Z,13.87
2023-05-16T04:00:19.035Z,13.62
2023-05-16T04:03:06.853Z,13.64
2023-05-16T04:05:58.096Z,13.71
2023-05-16T04:08:46.878Z,13.47
2023-05-16T04:11:37.711Z,13.78
2023-05-16T04:14:25.732Z,13.80
2023-05-16T04:17:13.663Z,13.81
2023-05-16T04:20:01.623Z,13.68
2023-05-16T04:22:49.398Z,13.85
2023-05-16T04:25:37.041Z,13.93
2023-05-16T04:28:24.860Z,13.77
2023-05-16T04:31:14.462Z,13.81
2023-05-16T04:34:02.243Z,13.86
2023-05-16T04:36:49.921Z,13.97
2023-05-16T04:39:38.635Z,13.93
2023-05-16T04:42:27.025Z,13.91
2023-05-16T04:45:15.010Z,14.06
2023-05-16T04:48:02.783Z,14.17
2023-05-16T04:50:50.646Z,13.93
2023-05-16T04:53:38.285Z,14.13
2023-05-16T04:56:27.313Z,14.18
2023-05-16T04:59:15.366Z,14.28
2023-05-16T05:02:03.048Z,14.11
2023-05-16T05:04:50.982Z,14.35
2023-05-16T05:07:38.682Z,14.32
2023-05-16T05:10:27.881Z,14.23
2023-05-16T05:13:15.624Z,14.19
2023-05-16T05:16:05.027Z,14.11
2023-05-16T05:18:53.094Z,13.97
2023-05-16T05:21:40.980Z,14.12
2023-05-16T05:24:28.944Z,13.76
2023-05-16T05:27:16.748Z,13.92
2023-05-16T05:30:04.928Z,14.00
2023-05-16T05:32:53.676Z,13.98
2023-05-16T05:35:41.430Z,14.23
2023-05-16T05:38:29.352Z,14.15
2023-05-16T05:41:16.979Z,14.56
2023-05-16T05:44:04.911Z,14.47
2023-05-16T05:46:52.833Z,14.62
2023-05-16T05:49:41.065Z,14.51
2023-05-16T05:52:31.822Z,14.64
2023-05-16T05:55:19.691Z,14.80
2023-05-16T05:58:07.516Z,14.98
2023-05-16T06:00:55.292Z,15.06
2023-05-16T06:03:43.618Z,15.11
2023-05-16T06:06:32.138Z,15.26
2023-05-16T06:09:19.850Z,15.56
2023-05-16T06:12:07.897Z,15.47
2023-05-16T06:15:21.576Z,15.64
2023-05-16T06:18:09.322Z,15.82
2023-05-16T06:20:57.067Z,15.73
2023-05-16T06:23:48.260Z,15.93
2023-05-16T06:26:36.671Z,15.98
2023-05-16T06:29:24.523Z,15.99
2023-05-16T06:32:13.309Z,16.10
2023-05-16T06:35:05.083Z,16.34
2023-05-16T06:37:52.771Z,16.29
2023-05-16T06:40:40.704Z,16.29
2023-05-16T06:43:28.490Z,16.47
2023-05-16T06:46:16.527Z,16.57
2023-05-16T06:49:04.895Z,16.63
2023-05-16T06:51:55.722Z,16.64
2023-05-16T06:54:43.453Z,17.05
2023-05-16T06:57:31.436Z,16.91
2023-05-16T07:00:19.575Z,17.22
2023-05-16T07:03:07.606Z,17.28
2023-05-16T07:05:58.315Z,17.28
2023-05-16T07:08:46.425Z,17.26
2023-05-16T07:11:34.322Z,17.34
2023-05-16T07:14:22.202Z,17.62
2023-05-16T07:17:10.802Z,18.24
2023-05-16T07:19:58.521Z,18.42
2023-05-16T07:22:46.277Z,18.38
2023-05-16T07:25:34.143Z,17.95
2023-05-16T07:28:25.345Z,17.90
2023-05-16T07:31:13.149Z,17.87
2023-05-16T07:34:01.303Z,17.47
2023-05-16T07:36:49.068Z,17.47
2023-05-16T07:39:36.907Z,17.16
2023-05-16T07:42:25.368Z,17.40
2023-05-16T07:45:13.172Z,17.24
2023-05-16T07:48:01.187Z,17.45
2023-05-16T07:50:49.061Z,17.69
2023-05-16T07:53:36.875Z,17.63
2023-05-16T07:56:24.558Z,17.73
2023-05-16T07:59:12.437Z,17.72
2023-05-16T08:02:00.453Z,17.82
2023-05-16T08:04:49.232Z,18.04
2023-05-16T08:07:36.945Z,17.72
2023-05-16T08:10:26.893Z,17.78
2023-05-16T08:13:14.658Z,17.93
2023-05-16T08:16:02.434Z,17.88
2023-05-16T08:18:50.289Z,17.67
2023-05-16T08:21:38.645Z,18.02
2023-05-16T08:24:26.475Z,17.81
2023-05-16T08:27:14.283Z,17.55
2023-05-16T08:30:02.011Z,17.49
2023-05-16T08:32:49.721Z,17.81
2023-05-16T08:35:37.434Z,17.68
2023-05-16T08:38:25.168Z,17.61
2023-05-16T08:41:14.278Z,17.76
2023-05-16T08:44:12.011Z,17.72
2023-05-16T08:47:13.312Z,17.63
2023-05-16T08:50:05.043Z,17.34
2023-05-16T08:52:54.353Z,17.87
2023-05-16T08:55:47.625Z,17.75
2023-05-16T08:58:36.187Z,17.76
2023-05-16T09:01:24.690Z,18.17
2023-05-16T09:04:15.403Z,18.07
2023-05-16T09:07:03.223Z,17.85
2023-05-16T09:09:51.104Z,17.95
2023-05-16T09:12:40.704Z,18.09
2023-05-16T09:15:33.287Z,18.20
2023-05-16T09:18:22.334Z,18.44
2023-05-16T09:21:10.778Z,18.60
2023-05-16T09:24:05.471Z,18.51
2023-05-16T09:26:55.108Z,18.60
2023-05-16T09:29:44.478Z,18.96
2023-05-16T09:32:32.352Z,18.95
2023-05-16T09:35:35.125Z,19.05
2023-05-16T09:38:33.118Z,19.09
2023-05-16T09:41:22.963Z,19.32
2023-05-16T09:44:11.052Z,19.30
2023-05-16T09:46:58.942Z,19.41
2023-05-16T09:49:50.261Z,19.45
2023-05-16T09:52:38.557Z,19.56
2023-05-16T09:56:14.005Z,19.94
2023-05-16T09:59:01.737Z,19.33
2023-05-16T10:01:51.633Z,19.23
2023-05-16T10:04:39.500Z,19.13
2023-05-16T10:07:28.664Z,18.99
2023-05-16T10:10:17.487Z,18.98
2023-05-16T10:13:07.931Z,18.86
2023-05-16T10:16:00.754Z,18.67
2023-05-16T10:18:48.496Z,18.78
2023-05-16T10:21:38.944Z,18.58
2023-05-16T10:24:37.486Z,18.23
2023-05-16T10:27:26.463Z,18.52
2023-05-16T10:30:15.026Z,18.33
2023-05-16T10:33:04.880Z,18.17
2023-05-16T10:35:53.177Z,18.10
2023-05-16T10:38:42.038Z,17.72
2023-05-16T10:41:32.048Z,18.12
2023-05-16T10:44:19.756Z,18.06
2023-05-16T10:47:07.680Z,17.93
2023-05-16T10:49:55.482Z,17.90
2023-05-16T10:52:43.400Z,18.00
2023-05-16T10:55:31.269Z,17.79
2023-05-16T10:58:38.792Z,17.95
2023-05-16T11:01:33.146Z,17.86
2023-05-16T11:04:21.041Z,17.90
2023-05-16T11:07:08.983Z,17.90
2023-05-16T11:10:22.730Z,17.90
2023-05-16T11:13:10.501Z,17.92
2023-05-16T11:16:32.215Z,17.97
2023-05-16T11:19:36.810Z,17.98
2023-05-16T11:22:27.012Z,17.94
2023-05-16T11:25:17.546Z,17.81
2023-05-16T11:28:05.436Z,18.01
2023-05-16T11:30:56.656Z,18.00
2023-05-16T11:33:45.367Z,17.98
2023-05-16T11:36:34.696Z,17.98
2023-05-16T11:39:26.124Z,17.92
2023-05-16T11:42:14.019Z,17.95
2023-05-16T11:45:08.187Z,17.98
2023-05-16T11:48:03.301Z,17.83
2023-05-16T11:50:54.136Z,18.05
2023-05-16T11:53:41.850Z,18.08
2023-05-16T11:56:29.663Z,17.88
2023-05-16T11:59:18.378Z,17.99
2023-05-16T12:02:06.670Z,18.10
2023-05-16T12:04:57.335Z,18.05
2023-05-16T12:07:45.825Z,18.19
2023-05-16T12:10:38.724Z,18.03
2023-05-16T12:13:27.190Z,18.12
2023-05-16T12:16:17.376Z,18.08
2023-05-16T12:19:09.580Z,17.98
2023-05-16T12:21:57.336Z,17.97
2023-05-16T12:24:45.053Z,17.71
2023-05-16T12:27:36.587Z,17.83
2023-05-16T12:30:25.931Z,17.84
2023-05-16T12:33:20.900Z,17.84
2023-05-16T12:36:18.059Z,17.86
2023-05-16T12:39:09.297Z,17.77
2023-05-16T12:41:57.260Z,17.92
2023-05-16T12:44:46.823Z,17.84
2023-05-16T12:47:39.048Z,17.87
2023-05-16T12:50:27.610Z,17.79
2023-05-16T12:53:17.347Z,17.58
2023-05-16T12:56:05.412Z,17.69
2023-05-16T12:58:53.109Z,17.53
2023-05-16T13:01:42.351Z,17.53
2023-05-16T13:04:30.801Z,17.59
2023-05-16T13:07:18.673Z,17.62
2023-05-16T13:10:12.921Z,17.59
2023-05-16T13:13:00.640Z,17.67
2023-05-16T13:15:48.351Z,17.75
2023-05-16T13:18:36.948Z,17.61
2023-05-16T13:21:24.711Z,17.76
2023-05-16T13:24:12.642Z,17.82
2023-05-16T13:27:00.508Z,17.94
2023-05-16T13:29:48.297Z,17.88
2023-05-16T13:32:36.177Z,18.05
2023-05-16T13:35:23.974Z,18.08
2023-05-16T13:38:11.736Z,17.82
2023-05-16T13:40:59.460Z,18.04
2023-05-16T13:43:47.200Z,18.26
2023-05-16T13:46:35.185Z,18.31
2023-05-16T13:49:23.949Z,18.40
2023-05-16T13:52:11.918Z,18.08
2023-05-16T13:54:59.676Z,18.44
2023-05-16T13:57:50.637Z,18.62
2023-05-16T14:00:45.278Z,18.45
2023-05-16T14:03:38.040Z,18.58
2023-05-16T14:06:26.026Z,18.51
2023-05-16T14:09:17.178Z,18.42
2023-05-16T14:12:08.158Z,18.45
2023-05-16T14:14:56.091Z,18.62
2023-05-16T14:17:43.910Z,18.83
2023-05-16T14:20:32.062Z,18.95
2023-05-16T14:23:19.847Z,19.10
2023-05-16T14:26:07.943Z,19.09
2023-05-16T14:28:56.503Z,19.14
2023-05-16T14:31:44.291Z,19.18
2023-05-16T14:34:32.081Z,19.20
2023-05-16T14:37:20.477Z,18.92
2023-05-16T14:40:26.726Z,18.93
2023-05-16T14:43:14.454Z,19.15
2023-05-16T14:46:02.309Z,19.12
2023-05-16T14:48:50.171Z,19.17
2023-05-16T14:51:37.869Z,19.00
2023-05-16T14:54:25.597Z,18.94
2023-05-16T14:57:13.447Z,18.82
2023-05-16T15:00:03.437Z,18.66
2023-05-16T15:02:51.480Z,18.51
2023-05-16T15:05:39.263Z,18.50
2023-05-16T15:08:27.233Z,18.32
2023-05-16T15:11:16.061Z,18.09
2023-05-16T15:14:03.804Z,18.24
2023-05-16T15:16:51.671Z,18.12
2023-05-16T15:19:39.508Z,18.02
2023-05-16T15:22:29.991Z,17.64
2023-05-16T15:25:18.281Z,17.72
2023-05-16T15:28:06.469Z,17.75
2023-05-16T15:30:54.140Z,17.74
2023-05-16T15:33:41.898Z,17.50
2023-05-16T15:36:29.587Z,17.54
2023-05-16T15:39:18.284Z,17.59
2023-05-16T15:42:11.214Z,17.33
2023-05-16T15:44:59.135Z,17.45
2023-05-16T15:47:47.187Z,17.35
2023-05-16T15:50:34.950Z,17.40
2023-05-16T15:53:22.680Z,17.38
2023-05-16T15:56:10.990Z,17.26
2023-05-16T15:58:58.777Z,17.23
2023-05-16T16:01:46.615Z,17.27
2023-05-16T16:04:34.414Z,17.09
2023-05-16T16:07:22.356Z,17.08
2023-05-16T16:10:10.531Z,17.04
2023-05-16T16:13:01.810Z,16.95
2023-05-16T16:15:49.600Z,16.97
2023-05-16T16:18:37.489Z,17.05
2023-05-16T16:21:25.310Z,16.92
2023-05-16T16:24:13.724Z,17.01
2023-05-16T16:27:01.855Z,17.05
2023-05-16T16:29:49.668Z,16.84
2023-05-16T16:32:37.606Z,16.99
2023-05-16T16:35:28.397Z,16.94
2023-05-16T16:38:16.626Z,16.96
2023-05-16T16:41:04.438Z,16.94
2023-05-16T16:43:52.308Z,16.97
2023-05-16T16:46:41.571Z,17.00
2023-05-16T16:49:29.804Z,16.95
2023-05-16T16:52:17.498Z,16.91
2023-05-16T16:55:06.340Z,16.75
2023-05-16T16:57:54.120Z,16.81
2023-05-16T17:00:42.208Z,16.82
2023-05-16T17:03:30.142Z,16.69
2023-05-16T17:06:17.906Z,16.70
2023-05-16T17:09:07.205Z,16.86
2023-05-16T17:11:54.934Z,16.66
2023-05-16T17:14:42.917Z,16.71
2023-05-16T17:17:30.749Z,16.54
2023-05-16T17:20:18.512Z,16.60
2023-05-16T17:23:06.514Z,16.62
2023-05-16T17:25:54.250Z,16.44
2023-05-16T17:28:42.003Z,16.48
2023-05-16T17:31:30.041Z,16.54
2023-05-16T17:34:20.906Z,16.54
2023-05-16T17:37:11.445Z,16.30
2023-05-16T17:39:59.336Z,16.25
2023-05-16T17:42:47.257Z,16.36
2023-05-16T17:45:35.120Z,16.36
2023-05-16T17:48:22.904Z,16.28
2023-05-16T17:51:10.697Z,16.35
2023-05-16T17:54:03.592Z,16.29
2023-05-16T17:56:54.006Z,16.14
2023-05-16T17:59:44.594Z,16.25
2023-05-16T18:02:32.736Z,16.13
2023-05-16T18:05:20.686Z,16.19
2023-05-16T18:08:10.589Z,16.15
2023-05-16T18:10:58.491Z,15.96
2023-05-16T18:13:49.922Z,16.02
2023-05-16T18:16:37.680Z,16.01
2023-05-16T18:19:25.608Z,15.96
2023-05-16T18:22:14.180Z,15.84
2023-05-16T18:25:02.117Z,15.97
2023-05-16T18:27:52.619Z,15.95
2023-05-16T18:30:41.747Z,15.95
2023-05-16T18:33:34.601Z,15.93
2023-05-16T18:36:25.668Z,15.86
2023-05-16T18:39:13.403Z,15.93
2023-05-16T18:42:10.070Z,15.87
2023-05-16T18:45:00.353Z,15.89
2023-05-16T18:47:48.530Z,15.88
2023-05-16T18:50:36.492Z,15.91
2023-05-16T18:53:30.316Z,15.90
2023-05-16T18:56:19.085Z,15.89
2023-05-16T18:59:09.850Z,15.99
2023-05-16T19:02:10.556Z,15.94
2023-05-16T19:05:02.174Z,15.87
2023-05-16T19:07:50.030Z,15.56
2023-05-16T19:10:44.955Z,15.78
2023-05-16T19:13:36.834Z,15.81
2023-05-16T19:16:29.275Z,15.86
2023-05-16T19:19:20.437Z,15.86
2023-05-16T19:22:08.688Z,15.89
2023-05-16T19:24:56.759Z,15.82
2023-05-16T19:27:44.528Z,15.84
2023-05-16T19:30:32.443Z,15.88
2023-05-16T19:33:21.707Z,15.83
2023-05-16T19:36:21.483Z,15.87
2023-05-16T19:39:09.263Z,15.85
2023-05-16T19:42:06.670Z,15.72
2023-05-16T19:44:54.993Z,15.86
2023-05-16T19:47:43.390Z,15.84
2023-05-16T19:50:31.353Z,15.79
2023-05-16T19:53:19.123Z,15.82
2023-05-16T19:56:06.971Z,15.84
2023-05-16T19:58:54.661Z,15.86
2023-05-16T20:01:42.394Z,15.60
2023-05-16T20:04:30.345Z,15.68
2023-05-16T20:07:18.160Z,15.59
2023-05-16T20:10:07.853Z,15.75
2023-05-16T20:12:55.584Z,15.62
2023-05-16T20:15:43.440Z,15.89
2023-05-16T20:18:32.132Z,15.78
2023-05-16T20:21:19.970Z,15.85
2023-05-16T20:24:07.914Z,15.78
2023-05-16T20:26:55.636Z,15.75
2023-05-16T20:29:43.402Z,15.61
2023-05-16T20:32:32.308Z,15.60
2023-05-16T20:35:20.066Z,15.58
2023-05-16T20:38:08.258Z,15.54
2023-05-16T20:40:56.620Z,15.59
2023-05-16T20:43:44.317Z,15.55
2023-05-16T20:46:32.353Z,15.43
2023-05-16T20:49:20.161Z,15.64
2023-05-16T20:52:07.884Z,15.53
2023-05-16T20:54:55.618Z,15.70
2023-05-16T20:57:43.903Z,15.61
2023-05-16T21:00:39.686Z,15.72
2023-05-16T21:03:27.433Z,15.66
2023-05-16T21:06:15.234Z,15.68
2023-05-16T21:09:04.908Z,15.67
2023-05-16T21:11:52.698Z,15.73
2023-05-16T21:14:40.641Z,15.52
2023-05-16T21:17:28.349Z,15.73
2023-05-16T21:20:16.205Z,15.72
2023-05-16T21:23:03.954Z,15.79
2023-05-16T21:25:51.867Z,15.76
2023-05-16T21:28:46.012Z,15.78
2023-05-16T21:31:42.001Z,15.72
2023-05-16T21:34:29.819Z,15.77
2023-05-16T21:37:17.631Z,15.60
2023-05-16T21:40:09.495Z,15.48
2023-05-16T21:42:57.199Z,15.58
2023-05-16T21:45:44.887Z,15.49
2023-05-16T21:48:32.759Z,15.54
2023-05-16T21:51:20.611Z,15.57
2023-05-16T21:54:08.340Z,15.37
2023-05-16T21:56:56.053Z,15.30
2023-05-16T21:59:43.798Z,15.31
2023-05-16T22:02:31.790Z,15.19
2023-05-16T22:05:19.745Z,15.05
2023-05-16T22:08:08.254Z,15.23
2023-05-16T22:10:56.069Z,15.21
2023-05-16T22:13:43.993Z,14.94
2023-05-16T22:16:31.806Z,15.25
2023-05-16T22:19:19.504Z,15.18
2023-05-16T22:22:07.269Z,15.20
2023-05-16T22:24:54.964Z,15.18
2023-05-16T22:27:42.862Z,15.22
2023-05-16T22:30:30.583Z,15.10
2023-05-16T22:33:18.412Z,15.23
2023-05-16T22:36:06.589Z,15.22
2023-05-16T22:38:54.437Z,15.23
2023-05-16T22:41:42.200Z,15.33
2023-05-16T22:44:30.262Z,15.35
2023-05-16T22:47:18.021Z,15.40
2023-05-16T22:50:06.217Z,15.43
2023-05-16T22:52:54.010Z,15.39
2023-05-16T22:55:41.744Z,15.28
2023-05-16T22:58:29.447Z,15.30
2023-05-16T23:01:17.156Z,15.44
2023-05-16T23:04:05.222Z,15.39
2023-05-16T23:06:53.293Z,15.40
2023-05-16T23:09:41.017Z,15.25
2023-05-16T23:12:28.622Z,15.20
2023-05-16T23:15:16.373Z,15.34
2023-05-16T23:18:04.467Z,15.22
2023-05-16T23:20:52.269Z,15.17
2023-05-16T23:23:40.206Z,15.08
2023-05-16T23:26:27.966Z,15.21
2023-05-16T23:29:15.826Z,15.19
2023-05-16T23:32:03.683Z,15.18
2023-05-16T23:34:51.520Z,15.30
2023-05-16T23:37:39.202Z,15.27
2023-05-16T23:40:28.225Z,15.23
2023-05-16T23:43:18.959Z,15.21
2023-05-16T23:46:19.121Z,15.09
2023-05-16T23:49:06.926Z,14.89
2023-05-16T23:51:57.809Z,14.92
2023-05-16T23:54:45.943Z,14.92
2023-05-16T23:57:33.674Z,14.76
